Terminal Aerodrome Forecast
Issued by NWS

Home | Current Version | Previous Version | Text Only | Print | Product List | Glossary On
Versions: 1 2 3 4 5 6 7 8 9 10 11 12 13 14
000
FTUS42 KTBW 171700
TAFPGD
TAF
KPGD 171727Z 1718/1818 26010KT 5SM -RA VCTS SCT025CB BKN070 OVC100
      TEMPO 1718/1721 3SM RA BKN025
     FM172100 26007KT P6SM -RA SCT025 OVC070
      TEMPO 1721/1724 3SM RA BKN025
     FM180000 27004KT P6SM VCSH FEW015 BKN070
     FM181300 VRB03KT P6SM VCSH SCT025 SCT080 BKN250=

USA.gov is the U.S. government's official web portal to all federal, state and local government web resources and services.